Time;durP1;ratioP1;P1;durP2;ratioP2;P2;SDS_P1;SDS_P2;PMS_P1;PMS_P2;Temp;Humidity;BMP_temperature;BMP_pressure;BME280_temperature;BME280_humidity;BME280_pressure;Samples;Min_cycle;Max_cycle;Signal;HPM_P1;HPM_P2
2023/01/17 00:02:23;;;;;;;6.15;1.80;;;;;;;5.40;72.34;98336.19;5043178;28;20033;-78
2023/01/17 00:10:24;;;;;;;3.55;1.40;;;;;;;5.31;72.65;98346.13;5052726;28;20056;-77
2023/01/17 00:12:58;;;;;;;2.88;1.30;;;;;;;5.32;72.47;98339.53;5053405;28;20427;-77
2023/01/17 00:15:24;;;;;;;4.30;1.33;;;;;;;5.22;71.94;98347.78;5049631;28;20388;-78
2023/01/17 00:17:51;;;;;;;2.08;1.00;;;;;;;5.27;72.42;98353.31;5050079;28;20071;-78
2023/01/17 00:26:01;;;;;;;1.52;1.10;;;;;;;5.26;71.68;98373.63;5052863;28;20079;-78
2023/01/17 01:35:16;;;;;;;0.90;0.90;;;;;;;4.93;70.94;98453.69;5032299;28;20059;-78
2023/01/17 01:37:41;;;;;;;1.17;1.00;;;;;;;4.92;70.99;98464.97;5032542;28;20041;-78
2023/01/17 01:40:07;;;;;;;2.65;1.10;;;;;;;4.89;70.77;98473.78;5050471;28;20037;-78
2023/01/17 01:42:33;;;;;;;2.10;1.33;;;;;;;4.90;70.66;98478.97;5052833;28;20029;-78
2023/01/17 01:44:58;;;;;;;1.40;1.30;;;;;;;4.82;70.30;98482.28;5052446;28;20032;-78
2023/01/17 01:47:39;;;;;;;1.65;1.30;;;;;;;4.82;71.00;98496.00;5052800;28;20036;-78
2023/01/17 01:50:07;;;;;;;3.53;1.40;;;;;;;4.79;70.67;98495.72;5047402;28;20072;-79
2023/01/17 01:52:35;;;;;;;2.33;1.50;;;;;;;4.77;70.92;98504.25;5052165;28;20053;-78
2023/01/17 01:55:10;;;;;;;1.42;1.30;;;;;;;4.78;70.93;98510.59;5050894;28;20036;-78
2023/01/17 01:57:41;;;;;;;1.60;1.50;;;;;;;4.77;70.77;98515.25;5052824;28;20036;-78
2023/01/17 02:00:17;;;;;;;1.73;1.30;;;;;;;4.81;71.14;98519.09;5051387;28;20033;-78
2023/01/17 02:02:47;;;;;;;1.90;1.80;;;;;;;4.78;70.52;98525.16;5052813;28;20041;-78
2023/01/17 02:05:15;;;;;;;1.50;1.40;;;;;;;4.76;71.11;98518.28;5051834;28;20024;-78
2023/01/17 02:07:48;;;;;;;3.38;1.70;;;;;;;4.75;71.27;98514.69;5049586;28;20033;-78
2023/01/17 02:10:14;;;;;;;2.03;1.35;;;;;;;4.75;70.88;98520.19;5048707;28;20024;-78
2023/01/17 02:12:40;;;;;;;1.40;1.30;;;;;;;4.79;71.20;98517.72;5043195;28;20044;-78
2023/01/17 02:15:06;;;;;;;2.97;1.65;;;;;;;4.78;71.17;98521.56;5042461;28;20055;-78
2023/01/17 02:18:07;;;;;;;1.80;1.70;;;;;;;4.80;71.51;98536.72;5052614;28;20033;-78
2023/01/17 02:20:55;;;;;;;5.22;1.88;;;;;;;4.79;71.27;98546.03;5049001;28;20043;-78
2023/01/17 02:23:30;;;;;;;5.38;1.90;;;;;;;4.77;71.63;98547.41;5050964;28;20036;-78
2023/01/17 02:26:29;;;;;;;1.45;1.30;;;;;;;4.73;71.44;98547.13;5052843;28;20128;-78
2023/01/17 02:29:11;;;;;;;2.55;1.38;;;;;;;4.75;71.06;98555.91;5048144;28;20061;-78
2023/01/17 02:31:46;;;;;;;3.05;1.45;;;;;;;4.72;70.90;98567.47;5038728;28;20112;-78
2023/01/17 02:34:20;;;;;;;3.83;1.30;;;;;;;4.71;70.64;98564.97;5032991;28;20021;-79
2023/01/17 02:36:55;;;;;;;3.63;1.27;;;;;;;4.65;70.83;98559.47;5030759;28;20038;-78
2023/01/17 02:39:24;;;;;;;4.35;1.45;;;;;;;4.64;70.50;98557.81;5032396;28;20037;-78
2023/01/17 02:41:56;;;;;;;2.47;1.00;;;;;;;4.58;70.62;98550.66;5031433;28;20083;-78
2023/01/17 02:44:22;;;;;;;1.60;0.85;;;;;;;4.61;70.62;98532.81;5042663;28;20448;-78
2023/01/17 02:46:51;;;;;;;1.50;0.90;;;;;;;4.59;70.35;98532.25;5049477;28;20021;-77
2023/01/17 02:49:20;;;;;;;1.05;0.90;;;;;;;4.57;70.53;98538.03;5052669;28;20028;-77
2023/01/17 02:52:18;;;;;;;1.95;0.90;;;;;;;4.51;70.30;98539.09;5051427;28;20110;-78
2023/01/17 02:54:54;;;;;;;3.72;0.90;;;;;;;4.50;69.82;98544.88;5055687;28;20036;-78
2023/01/17 02:58:01;;;;;;;1.50;1.00;;;;;;;4.57;70.04;98546.25;5052325;28;20049;-77
2023/01/17 03:00:41;;;;;;;3.10;0.98;;;;;;;4.51;69.91;98552.81;5050602;28;20159;-77
2023/01/17 03:03:07;;;;;;;3.63;0.90;;;;;;;4.49;69.60;98555.03;5053721;28;20367;-77
2023/01/17 03:05:42;;;;;;;3.15;0.85;;;;;;;4.48;69.68;98567.13;5053076;28;20032;-78
2023/01/17 03:08:08;;;;;;;3.22;1.17;;;;;;;4.43;69.25;98564.34;5050524;28;20352;-78
2023/01/17 03:10:35;;;;;;;2.35;0.88;;;;;;;4.39;69.57;98569.53;5053738;28;20033;-78
2023/01/17 03:13:01;;;;;;;3.80;1.00;;;;;;;4.35;69.54;98578.59;5054886;28;20017;-77
2023/01/17 03:15:27;;;;;;;2.92;1.00;;;;;;;4.32;69.57;98577.22;5053069;28;20035;-78
2023/01/17 03:17:57;;;;;;;2.20;0.82;;;;;;;4.32;69.37;98584.59;5053126;28;20041;-77
2023/01/17 03:20:22;;;;;;;3.58;0.90;;;;;;;4.30;69.83;98584.06;5051454;28;20033;-78
2023/01/17 03:22:47;;;;;;;1.77;0.93;;;;;;;4.29;70.20;98574.19;5053004;28;20047;-78
2023/01/17 03:25:12;;;;;;;2.13;0.90;;;;;;;4.26;70.21;98574.72;5051879;28;20032;-78
2023/01/17 03:27:38;;;;;;;1.73;0.90;;;;;;;4.23;70.37;98570.56;5052293;28;20039;-77
2023/01/17 03:30:04;;;;;;;1.50;0.90;;;;;;;4.22;70.24;98579.91;5053854;28;20029;-77
2023/01/17 03:32:29;;;;;;;3.58;1.00;;;;;;;4.18;70.17;98579.63;5053188;28;20060;-78
2023/01/17 03:34:54;;;;;;;1.50;0.90;;;;;;;4.22;70.26;98585.41;5053698;28;20032;-77
2023/01/17 03:37:20;;;;;;;7.25;1.15;;;;;;;4.18;70.23;98587.84;5048266;28;20124;-78
2023/01/17 03:39:45;;;;;;;1.10;1.00;;;;;;;4.14;70.57;98584.00;5052784;28;20105;-77
2023/01/17 03:42:10;;;;;;;2.03;0.85;;;;;;;4.13;70.28;98584.28;5052624;28;20039;-77
2023/01/17 03:44:36;;;;;;;2.38;1.15;;;;;;;4.14;70.21;98580.41;5053193;28;20472;-78
2023/01/17 03:47:01;;;;;;;1.70;1.17;;;;;;;4.13;70.37;98587.84;5053009;28;20053;-77
2023/01/17 03:49:27;;;;;;;2.03;0.90;;;;;;;4.14;70.67;98584.00;5053590;28;20025;-78
2023/01/17 03:51:52;;;;;;;2.70;1.10;;;;;;;4.12;70.49;98591.66;5049559;28;20040;-78
2023/01/17 03:54:17;;;;;;;3.65;1.10;;;;;;;4.14;70.34;98594.97;5045892;28;20028;-78
2023/01/17 03:56:43;;;;;;;3.03;1.17;;;;;;;4.15;70.45;98596.63;5053492;28;20562;-78
2023/01/17 03:59:08;;;;;;;1.27;1.10;;;;;;;4.09;70.15;98586.72;5052851;28;20037;-78
2023/01/17 04:01:33;;;;;;;2.60;1.15;;;;;;;4.12;70.21;98588.09;5051484;28;20029;-78
2023/01/17 04:03:58;;;;;;;2.67;1.60;;;;;;;4.11;70.31;98584.50;5052920;28;20033;-78
2023/01/17 04:06:24;;;;;;;3.45;1.60;;;;;;;4.12;70.30;98586.16;5051524;28;20144;-78
2023/01/17 04:08:49;;;;;;;2.55;1.85;;;;;;;4.08;70.24;98585.03;5049406;28;20078;-78
2023/01/17 04:11:14;;;;;;;2.25;1.77;;;;;;;4.12;70.37;98585.34;5044437;28;20025;-78
2023/01/17 04:13:40;;;;;;;4.68;1.60;;;;;;;4.09;70.50;98594.97;5032566;28;20029;-78
2023/01/17 04:16:11;;;;;;;3.42;2.00;;;;;;;4.05;70.29;98590.22;5052167;28;20032;-77
2023/01/17 04:18:36;;;;;;;2.90;2.13;;;;;;;4.03;70.66;98593.25;5051744;28;20029;-77
2023/01/17 04:21:01;;;;;;;2.92;2.33;;;;;;;4.02;70.31;98590.78;5049030;28;20480;-78
2023/01/17 04:23:27;;;;;;;3.05;2.28;;;;;;;4.02;70.24;98590.78;5052983;28;20021;-78
2023/01/17 04:25:52;;;;;;;2.67;2.13;;;;;;;3.99;70.41;98586.66;5051231;28;20063;-78
2023/01/17 04:28:17;;;;;;;4.60;2.05;;;;;;;4.00;70.46;98591.03;5049918;28;20086;-78
2023/01/17 04:30:43;;;;;;;4.70;2.25;;;;;;;4.00;70.04;98582.81;5050514;28;20032;-77
2023/01/17 04:33:08;;;;;;;4.22;2.40;;;;;;;3.96;70.79;98581.69;5048116;28;20037;-77
2023/01/17 04:35:33;;;;;;;4.85;2.10;;;;;;;3.96;70.27;98580.84;5050181;28;20043;-77
2023/01/17 04:37:59;;;;;;;5.57;2.00;;;;;;;3.95;70.04;98582.78;5051914;28;20041;-80
2023/01/17 04:40:25;;;;;;;4.10;1.80;;;;;;;3.94;70.18;98589.38;5052558;28;20112;-70
2023/01/17 04:42:50;;;;;;;2.95;2.10;;;;;;;3.93;70.22;98593.22;5050162;28;20029;-77
2023/01/17 04:45:16;;;;;;;4.60;2.10;;;;;;;3.93;70.37;98593.22;5046790;28;20026;-76
2023/01/17 04:47:41;;;;;;;6.85;2.25;;;;;;;3.95;70.42;98593.75;5044213;28;20032;-77
2023/01/17 04:50:08;;;;;;;3.75;1.80;;;;;;;3.94;70.30;98589.38;5049102;28;20029;-77
2023/01/17 04:52:33;;;;;;;4.80;1.98;;;;;;;3.93;70.19;98594.03;5049464;28;20678;-77
2023/01/17 04:54:59;;;;;;;4.40;1.90;;;;;;;3.95;69.92;98599.25;5051918;28;20112;-77
2023/01/17 04:57:24;;;;;;;4.35;1.90;;;;;;;3.96;70.32;98600.06;5051463;28;20055;-77
2023/01/17 04:59:50;;;;;;;3.67;2.35;;;;;;;3.93;69.88;98594.03;5050949;28;20028;-77
2023/01/17 05:02:15;;;;;;;3.67;2.15;;;;;;;3.94;70.56;98600.34;5045458;28;20037;-77
2023/01/17 05:04:41;;;;;;;3.55;2.65;;;;;;;3.91;70.17;98598.13;5034202;28;20028;-77
2023/01/17 05:07:06;;;;;;;6.00;3.38;;;;;;;3.88;70.78;98599.47;5049404;28;20043;-77
2023/01/17 05:09:31;;;;;;;6.50;3.50;;;;;;;3.89;70.52;98600.28;5051088;28;20025;-77
2023/01/17 05:11:57;;;;;;;7.28;4.47;;;;;;;3.86;70.33;98593.44;5051746;28;20051;-77
2023/01/17 05:14:25;;;;;;;7.15;4.50;;;;;;;3.88;70.47;98598.66;5050041;28;20488;-77
2023/01/17 05:16:53;;;;;;;5.93;4.68;;;;;;;3.88;70.43;98601.41;5050077;28;20082;-77
2023/01/17 05:19:18;;;;;;;11.63;4.90;;;;;;;3.83;70.40;98610.44;5040081;28;20087;-77
2023/01/17 05:21:43;;;;;;;8.15;5.85;;;;;;;3.83;71.11;98596.69;5040027;28;20423;-77
2023/01/17 05:24:09;;;;;;;7.57;5.70;;;;;;;3.85;70.79;98601.91;5050792;28;20048;-77
2023/01/17 05:26:34;;;;;;;9.65;6.28;;;;;;;3.77;70.35;98608.72;5051373;28;20460;-78
2023/01/17 05:28:59;;;;;;;6.70;5.90;;;;;;;3.77;70.08;98605.16;5051612;28;20025;-77
2023/01/17 05:31:25;;;;;;;8.93;6.28;;;;;;;3.77;70.72;98605.16;5049961;28;20420;-77
2023/01/17 05:33:50;;;;;;;7.53;6.00;;;;;;;3.76;70.74;98607.06;5051646;28;20032;-78
2023/01/17 05:36:15;;;;;;;7.57;5.82;;;;;;;3.75;70.67;98605.44;5035036;28;20484;-76
2023/01/17 05:38:40;;;;;;;7.88;5.80;;;;;;;3.74;70.46;98611.19;5047265;28;20080;-77
2023/01/17 05:41:06;;;;;;;9.73;5.88;;;;;;;3.73;69.98;98615.84;5049841;28;20491;-77
2023/01/17 05:43:31;;;;;;;8.40;5.65;;;;;;;3.73;69.96;98625.97;5049986;28;20155;-77
2023/01/17 05:45:56;;;;;;;8.70;5.20;;;;;;;3.76;69.89;98628.22;5049398;28;20033;-76
2023/01/17 05:48:21;;;;;;;8.05;5.50;;;;;;;3.71;69.92;98629.00;5050135;28;20033;-76
2023/01/17 05:50:47;;;;;;;7.47;5.18;;;;;;;3.73;69.81;98632.28;5050258;28;20055;-76
2023/01/17 05:53:14;;;;;;;7.78;4.65;;;;;;;3.73;70.05;98631.47;5045459;28;20024;-76
2023/01/17 05:55:41;;;;;;;5.93;4.47;;;;;;;3.69;70.73;98639.41;5049630;28;20114;-76
2023/01/17 05:58:11;;;;;;;6.82;5.00;;;;;;;3.66;70.37;98640.75;5051289;28;20028;-76
2023/01/17 06:00:37;;;;;;;7.00;4.70;;;;;;;3.69;70.45;98639.41;5048280;28;20033;-74
2023/01/17 06:03:02;;;;;;;5.32;4.82;;;;;;;3.67;70.54;98639.66;5047586;28;20040;-74
2023/01/17 06:05:28;;;;;;;7.70;5.57;;;;;;;3.71;70.15;98639.97;5047521;28;20033;-74
2023/01/17 06:07:55;;;;;;;6.72;5.55;;;;;;;3.69;69.82;98633.91;5047847;28;20060;-74
2023/01/17 06:10:22;;;;;;;7.00;5.90;;;;;;;3.65;70.27;98633.59;5041503;28;20090;-75
2023/01/17 06:12:48;;;;;;;11.65;7.15;;;;;;;3.64;70.44;98631.13;5039006;28;20030;-75
2023/01/17 06:15:16;;;;;;;10.35;6.72;;;;;;;3.62;70.22;98631.41;5035600;28;20079;-75
2023/01/17 06:17:42;;;;;;;9.20;7.38;;;;;;;3.63;69.99;98633.06;5040859;28;20028;-76
2023/01/17 06:20:09;;;;;;;12.02;7.43;;;;;;;3.66;69.97;98629.78;5037788;28;20443;-73
2023/01/17 06:22:34;;;;;;;8.63;7.72;;;;;;;3.66;69.81;98637.19;5044059;28;20029;-72
2023/01/17 06:24:59;;;;;;;14.68;7.45;;;;;;;3.66;69.99;98638.03;5046356;28;20097;-71
2023/01/17 06:27:25;;;;;;;8.57;7.38;;;;;;;3.63;69.49;98643.22;5048001;28;20025;-71
2023/01/17 06:29:51;;;;;;;9.93;7.60;;;;;;;3.56;69.42;98637.94;5053492;28;20044;-74
2023/01/17 06:32:16;;;;;;;10.30;7.22;;;;;;;3.57;69.53;98639.56;5054654;28;20036;-73
2023/01/17 06:34:41;;;;;;;10.40;7.32;;;;;;;3.53;69.59;98641.19;5044265;28;20472;-73
2023/01/17 06:37:07;;;;;;;16.77;7.45;;;;;;;3.54;69.53;98642.03;5052248;28;20049;-72
2023/01/17 06:39:32;;;;;;;9.70;6.95;;;;;;;3.54;69.17;98645.59;5053535;28;20489;-72
2023/01/17 06:41:58;;;;;;;11.48;7.43;;;;;;;3.51;69.84;98645.31;5052114;28;20037;-75
2023/01/17 06:44:25;;;;;;;10.38;7.55;;;;;;;3.51;69.79;98651.59;5054329;28;20365;-73
2023/01/17 06:46:50;;;;;;;11.90;7.38;;;;;;;3.51;68.98;98648.03;5052513;28;20032;-76
2023/01/17 06:49:15;;;;;;;9.25;8.00;;;;;;;3.48;69.87;98646.63;5053418;28;20037;-73
2023/01/17 06:51:41;;;;;;;11.65;7.88;;;;;;;3.45;69.40;98649.91;5048320;28;20074;-72
2023/01/17 06:54:06;;;;;;;12.00;7.47;;;;;;;3.44;69.54;98651.00;5051710;28;20024;-75
2023/01/17 06:56:32;;;;;;;14.35;7.40;;;;;;;3.43;69.48;98649.34;5052173;28;20036;-76
2023/01/17 06:58:57;;;;;;;9.70;7.55;;;;;;;3.39;69.39;98659.19;5051643;28;20393;-78
2023/01/17 07:01:23;;;;;;;9.52;7.25;;;;;;;3.41;69.09;98654.25;5054210;28;20028;-77
2023/01/17 07:03:48;;;;;;;14.35;7.47;;;;;;;3.36;69.42;98649.53;5047667;28;20498;-78
2023/01/17 07:06:13;;;;;;;12.75;7.72;;;;;;;3.37;69.22;98644.88;5053924;28;20029;-77
2023/01/17 07:08:39;;;;;;;11.65;7.90;;;;;;;3.32;69.49;98656.63;5051369;28;20099;-75
2023/01/17 07:11:09;;;;;;;9.52;7.28;;;;;;;3.35;69.14;98663.53;5041872;28;20029;-71
2023/01/17 07:13:38;;;;;;;13.63;8.07;;;;;;;3.33;69.18;98652.81;5049344;28;20494;-71
2023/01/17 07:16:05;;;;;;;13.35;7.97;;;;;;;3.36;69.69;98654.22;5048013;28;20063;-73
2023/01/17 07:18:31;;;;;;;13.43;8.02;;;;;;;3.31;69.04;98662.41;5045747;28;20033;-77
2023/01/17 07:20:57;;;;;;;10.43;8.25;;;;;;;3.30;69.39;98664.31;5042161;28;20765;-76
2023/01/17 07:23:23;;;;;;;12.40;8.20;;;;;;;3.35;71.90;98658.88;5046591;28;20021;-78
2023/01/17 07:25:53;;;;;;;12.02;8.35;;;;;;;3.34;69.52;98657.22;5050181;28;20059;-77
2023/01/17 07:28:18;;;;;;;13.00;8.27;;;;;;;3.29;68.95;98662.63;5048399;28;20052;-76
2023/01/17 07:30:44;;;;;;;14.75;8.75;;;;;;;3.30;69.26;98664.31;5047625;28;20057;-77
2023/01/17 07:33:09;;;;;;;11.82;8.45;;;;;;;3.27;68.75;98672.22;5049782;28;20484;-77
2023/01/17 07:35:35;;;;;;;12.05;8.20;;;;;;;3.25;68.97;98668.91;5047285;28;20052;-71
2023/01/17 07:38:00;;;;;;;11.20;8.40;;;;;;;3.23;68.56;98674.66;5044153;28;20510;-72
2023/01/17 07:40:26;;;;;;;13.45;8.98;;;;;;;3.27;69.21;98673.06;5042033;28;20041;-73
2023/01/17 07:42:51;;;;;;;11.98;8.02;;;;;;;3.24;69.18;98679.03;5053014;28;20025;-72
2023/01/17 07:45:17;;;;;;;14.07;8.70;;;;;;;3.22;68.92;98680.38;5050236;28;20163;-71
2023/01/17 07:47:42;;;;;;;15.40;8.77;;;;;;;3.21;69.24;98685.03;5048800;28;20113;-73
2023/01/17 07:50:08;;;;;;;13.63;8.60;;;;;;;3.18;68.60;98675.44;5048301;28;20033;-70
2023/01/17 07:52:33;;;;;;;12.18;8.50;;;;;;;3.19;69.00;98677.09;5041804;28;20034;-72
2023/01/17 07:54:59;;;;;;;12.60;8.48;;;;;;;3.20;69.07;98680.66;5051188;28;20040;-72
2023/01/17 07:57:24;;;;;;;14.63;9.13;;;;;;;3.17;69.16;98684.72;5039147;28;20116;-73
2023/01/17 07:59:51;;;;;;;12.43;8.65;;;;;;;3.17;68.81;98678.41;5049044;28;20029;-71
2023/01/17 08:02:18;;;;;;;16.80;9.20;;;;;;;3.16;69.85;98682.25;5036978;28;20037;-71
2023/01/17 08:04:44;;;;;;;18.63;9.20;;;;;;;3.19;69.14;98677.09;5051298;28;20058;-73
2023/01/17 08:07:10;;;;;;;14.70;9.88;;;;;;;3.17;69.14;98679.25;5047569;28;20051;-70
2023/01/17 08:09:35;;;;;;;15.90;10.02;;;;;;;3.18;69.15;98674.56;5048607;28;20530;-70
2023/01/17 08:12:01;;;;;;;13.10;9.27;;;;;;;3.22;69.27;98681.19;5048965;28;20024;-74
2023/01/17 08:14:26;;;;;;;13.70;9.55;;;;;;;3.20;69.12;98684.22;5038714;28;20029;-75
2023/01/17 08:16:52;;;;;;;11.52;9.43;;;;;;;3.18;68.75;98678.19;5049768;28;20036;-73
2023/01/17 08:19:17;;;;;;;15.50;8.98;;;;;;;3.20;69.53;98677.91;5049575;28;20067;-68
2023/01/17 08:21:43;;;;;;;13.02;9.02;;;;;;;3.19;69.14;98677.09;5049438;28;20040;-72
2023/01/17 08:24:12;;;;;;;12.90;9.68;;;;;;;3.20;69.61;98683.38;5050555;28;20086;-73
2023/01/17 08:26:38;;;;;;;12.55;9.60;;;;;;;3.23;69.63;98690.28;5051642;28;20547;-77
2023/01/17 08:29:04;;;;;;;15.73;9.73;;;;;;;3.22;69.60;98691.34;5049592;28;20039;-73
2023/01/17 08:31:32;;;;;;;14.75;9.73;;;;;;;3.20;69.46;98695.19;5046725;28;20032;-74
2023/01/17 08:33:58;;;;;;;12.70;9.90;;;;;;;3.23;69.26;98695.75;5046689;28;20142;-75
2023/01/17 08:36:24;;;;;;;19.85;10.63;;;;;;;3.20;68.85;98694.34;5051969;28;20519;-74
2023/01/17 08:38:51;;;;;;;19.55;10.10;;;;;;;3.18;69.47;98697.38;5045612;28;20048;-71
2023/01/17 08:41:21;;;;;;;14.38;10.70;;;;;;;3.21;69.53;98696.00;5048073;28;20059;-68
2023/01/17 08:43:50;;;;;;;16.88;10.55;;;;;;;3.22;69.64;98697.66;5052372;28;20041;-71
2023/01/17 08:46:17;;;;;;;18.77;10.93;;;;;;;3.21;69.46;98706.97;5051676;28;20033;-69
2023/01/17 08:48:43;;;;;;;15.00;10.90;;;;;;;3.18;69.46;98694.63;5042724;28;20033;-69
2023/01/17 08:51:09;;;;;;;18.95;11.68;;;;;;;3.17;69.65;98703.09;5046469;28;20036;-69
2023/01/17 08:53:34;;;;;;;16.48;14.68;;;;;;;3.18;69.20;98697.38;5046439;28;20047;-72
2023/01/17 08:56:01;;;;;;;17.67;12.68;;;;;;;3.22;69.69;98694.91;5048306;28;20033;-72
2023/01/17 08:58:28;;;;;;;15.32;11.90;;;;;;;3.20;69.68;98705.31;5051408;28;20043;-72
2023/01/17 09:00:54;;;;;;;14.40;10.63;;;;;;;3.19;69.16;98703.66;5048543;28;20044;-71
2023/01/17 09:03:20;;;;;;;15.43;11.52;;;;;;;3.22;69.40;98697.66;5043371;28;20111;-72
2023/01/17 09:05:45;;;;;;;16.42;12.90;;;;;;;3.24;69.91;98698.25;5051582;28;20028;-75
2023/01/17 09:08:10;;;;;;;18.02;12.90;;;;;;;3.28;69.33;98704.03;5043976;28;20041;-70
2023/01/17 09:10:35;;;;;;;15.80;11.48;;;;;;;3.31;69.90;98712.56;5041654;28;20057;-70
2023/01/17 09:13:01;;;;;;;16.30;11.95;;;;;;;3.32;69.73;98710.66;5043606;28;20029;-67
2023/01/17 09:15:26;;;;;;;15.27;12.38;;;;;;;3.36;69.43;98706.31;5049569;28;20033;-70
2023/01/17 09:17:55;;;;;;;19.45;12.95;;;;;;;3.36;69.89;98709.88;5046537;28;20044;-70
2023/01/17 09:20:22;;;;;;;15.63;11.75;;;;;;;3.37;69.20;98710.69;5044025;28;20040;-70
2023/01/17 09:22:48;;;;;;;14.75;11.63;;;;;;;3.40;69.49;98704.69;5033728;28;20029;-71
2023/01/17 09:25:13;;;;;;;16.08;11.52;;;;;;;3.36;69.33;98701.66;5050357;28;20100;-71
2023/01/17 09:27:38;;;;;;;19.45;11.57;;;;;;;3.40;69.92;98707.44;5041831;28;21009;-70
2023/01/17 09:30:04;;;;;;;13.48;11.07;;;;;;;3.41;70.08;98709.09;5047757;28;20033;-70
2023/01/17 09:32:29;;;;;;;19.13;11.90;;;;;;;3.48;70.11;98717.13;5045503;28;20530;-73
2023/01/17 09:34:59;;;;;;;14.25;10.73;;;;;;;3.50;70.02;98720.41;5049625;28;20039;-72
2023/01/17 09:37:24;;;;;;;20.23;11.93;;;;;;;3.52;69.84;98710.84;5044329;28;20041;-72
2023/01/17 09:39:50;;;;;;;16.17;11.15;;;;;;;3.58;70.48;98712.56;5049116;28;20033;-75
2023/01/17 09:42:29;;;;;;;20.23;11.45;;;;;;;3.59;69.85;98714.22;5046991;28;20063;-74
2023/01/17 09:44:55;;;;;;;17.55;11.48;;;;;;;3.64;70.06;98717.00;5035571;28;20362;-69
2023/01/17 09:47:41;;;;;;;15.40;11.32;;;;;;;3.75;69.94;98723.41;5041918;28;20036;-72
2023/01/17 09:50:14;;;;;;;14.48;10.60;;;;;;;3.80;69.65;98717.97;5047173;28;20036;-67
2023/01/17 09:52:39;;;;;;;16.02;10.60;;;;;;;3.90;69.78;98719.97;5043179;28;20093;-71
2023/01/17 09:55:05;;;;;;;13.75;10.55;;;;;;;3.93;69.26;98713.97;5030357;28;20034;-70
2023/01/17 09:58:01;;;;;;;16.20;10.88;;;;;;;4.07;69.60;98714.34;5030519;28;20160;-72
2023/01/17 10:00:48;;;;;;;14.82;10.32;;;;;;;4.07;69.49;98715.16;5029478;28;20033;-69
2023/01/17 10:03:48;;;;;;;12.18;9.88;;;;;;;4.13;69.28;98729.78;5043510;28;20044;-71
2023/01/17 10:06:34;;;;;;;16.27;13.40;;;;;;;4.14;69.16;98726.75;5048033;28;20028;-68
2023/01/17 10:09:24;;;;;;;16.30;10.70;;;;;;;4.21;69.29;98725.72;5048660;28;20511;-72
2023/01/17 10:11:58;;;;;;;13.30;10.43;;;;;;;4.25;69.25;98726.84;5048198;28;20089;-72
2023/01/17 10:14:31;;;;;;;14.40;9.18;;;;;;;4.26;68.79;98726.56;5041278;28;20048;-71
2023/01/17 10:17:15;;;;;;;12.70;9.45;;;;;;;4.27;69.00;98733.72;5045879;28;20037;-71
2023/01/17 10:19:43;;;;;;;13.63;9.52;;;;;;;4.29;68.50;98734.28;5044854;28;20060;-74
2023/01/17 10:22:29;;;;;;;13.57;9.27;;;;;;;4.41;69.31;98728.59;5047058;28;20033;-73
2023/01/17 10:25:19;;;;;;;15.68;9.18;;;;;;;4.54;69.12;98736.34;5043864;28;20036;-74
2023/01/17 10:27:55;;;;;;;16.08;10.20;;;;;;;4.57;68.82;98730.34;5047270;28;20473;-76
2023/01/17 10:30:38;;;;;;;15.98;10.02;;;;;;;4.65;68.72;98724.34;5047499;28;20174;-74
2023/01/17 10:33:16;;;;;;;16.30;9.70;;;;;;;4.72;68.86;98726.03;5048003;28;20068;-76
2023/01/17 10:36:02;;;;;;;15.82;9.75;;;;;;;4.69;68.17;98727.38;5046870;28;20369;-72
2023/01/17 10:38:32;;;;;;;15.35;10.43;;;;;;;4.64;68.28;98722.69;5044794;28;20523;-74
2023/01/17 10:41:03;;;;;;;15.55;9.73;;;;;;;4.66;69.26;98725.97;5048259;28;20040;-72
2023/01/17 10:43:48;;;;;;;14.48;9.35;;;;;;;4.72;69.42;98731.53;5046449;28;20098;-69
2023/01/17 10:46:18;;;;;;;13.43;9.65;;;;;;;4.67;68.61;98746.88;5046787;28;20047;-66
2023/01/17 10:48:46;;;;;;;15.77;9.55;;;;;;;4.66;68.80;98744.41;5046291;28;20029;-68
2023/01/17 10:51:30;;;;;;;14.25;9.73;;;;;;;4.69;69.17;98743.88;5046925;28;20438;-72
2023/01/17 10:54:08;;;;;;;11.88;9.35;;;;;;;4.67;69.10;98735.88;5046403;28;20033;-70
2023/01/17 10:56:38;;;;;;;15.55;8.90;;;;;;;4.71;69.59;98741.66;5044022;28;20065;-73
2023/01/17 10:59:22;;;;;;;12.90;9.70;;;;;;;4.86;69.92;98739.00;5048730;28;20500;-75
2023/01/17 11:01:47;;;;;;;12.40;10.18;;;;;;;4.89;69.01;98729.41;5044650;28;20029;-76
2023/01/17 11:04:19;;;;;;;16.35;9.93;;;;;;;4.88;69.16;98738.75;5046192;28;20040;-77
2023/01/17 11:06:46;;;;;;;14.43;9.68;;;;;;;4.84;68.70;98732.97;5036929;28;20563;-69
2023/01/17 11:09:11;;;;;;;17.17;10.25;;;;;;;4.82;68.80;98735.13;5045937;28;20032;-76
2023/01/17 11:11:47;;;;;;;11.95;9.35;;;;;;;4.85;69.13;98725.53;5039835;28;20029;-77
2023/01/17 11:14:25;;;;;;;12.82;9.60;;;;;;;4.92;69.04;98734.38;5038387;28;20104;-77
2023/01/17 11:17:11;;;;;;;15.88;9.73;;;;;;;5.02;69.13;98723.41;5050922;28;20029;-76
2023/01/17 11:19:38;;;;;;;14.05;9.90;;;;;;;5.07;69.37;98723.44;5045449;28;20048;-74
2023/01/17 11:22:06;;;;;;;14.20;10.20;;;;;;;5.13;69.22;98716.84;5047808;28;20069;-72
2023/01/17 11:24:39;;;;;;;11.85;9.32;;;;;;;5.24;69.21;98727.91;5050513;28;20434;-75
2023/01/17 11:27:06;;;;;;;12.75;8.80;;;;;;;5.26;67.84;98718.25;5051655;28;20390;-70
2023/01/17 11:29:37;;;;;;;12.77;8.23;;;;;;;5.28;67.52;98718.81;5050308;28;20029;-74
2023/01/17 11:32:21;;;;;;;12.70;9.00;;;;;;;5.34;68.03;98717.72;5043258;28;20033;-76
2023/01/17 11:35:06;;;;;;;13.25;8.27;;;;;;;5.37;68.18;98727.38;5049533;28;20090;-76
2023/01/17 11:37:32;;;;;;;13.75;8.18;;;;;;;5.35;66.57;98718.56;5033283;28;20077;-76
2023/01/17 11:40:17;;;;;;;13.27;7.60;;;;;;;5.38;67.69;98712.50;5052904;28;20029;-76
2023/01/17 11:42:43;;;;;;;12.63;8.07;;;;;;;5.38;67.16;98718.00;5053818;28;20032;-76
2023/01/17 11:45:22;;;;;;;10.13;6.82;;;;;;;5.40;66.86;98713.06;5052583;28;20032;-77
2023/01/17 11:47:47;;;;;;;15.48;7.57;;;;;;;5.38;66.51;98702.34;5045703;28;20036;-77
2023/01/17 11:50:25;;;;;;;9.57;6.47;;;;;;;5.39;66.95;98698.50;5043645;28;20037;-70
2023/01/17 11:52:50;;;;;;;7.93;6.50;;;;;;;5.36;64.78;98704.53;5046688;28;20032;-71
2023/01/17 11:55:16;;;;;;;13.65;6.80;;;;;;;5.37;64.97;98706.19;5051829;28;20033;-70
2023/01/17 11:57:41;;;;;;;11.48;6.55;;;;;;;5.40;64.99;98702.91;5045164;28;20036;-68
2023/01/17 12:00:27;;;;;;;9.57;6.65;;;;;;;5.48;65.88;98703.47;5052482;28;20040;-68
2023/01/17 12:03:20;;;;;;;14.32;7.32;;;;;;;5.53;64.84;98693.28;5051557;28;20036;-69
2023/01/17 12:06:01;;;;;;;11.15;6.57;;;;;;;5.59;65.71;98702.38;5044731;28;20388;-69
2023/01/17 12:09:03;;;;;;;11.38;6.47;;;;;;;5.61;65.52;98700.16;5049725;28;20176;-66
2023/01/17 12:15:24;;;;;;;7.93;6.00;;;;;;;5.72;64.25;98703.78;5049610;28;20095;-68
2023/01/17 12:18:20;;;;;;;8.43;6.30;;;;;;;5.73;64.02;98703.47;5052677;28;20025;-68
2023/01/17 12:21:15;;;;;;;9.57;6.38;;;;;;;5.76;64.34;98704.88;5051369;28;20488;-68
2023/01/17 12:24:09;;;;;;;11.43;6.47;;;;;;;5.75;64.03;98694.97;5052136;28;20040;-68
2023/01/17 12:26:55;;;;;;;7.70;5.18;;;;;;;5.77;63.38;98687.25;5050059;28;20115;-68
2023/01/17 12:29:57;;;;;;;6.43;4.88;;;;;;;5.78;62.37;98694.44;5050898;28;20049;-68
2023/01/17 12:32:39;;;;;;;10.55;5.88;;;;;;;5.74;62.71;98691.41;5048059;28;20064;-68
2023/01/17 12:35:17;;;;;;;8.63;6.00;;;;;;;5.78;62.29;98683.41;5052243;28;20037;-68
2023/01/17 12:37:45;;;;;;;7.82;5.00;;;;;;;5.77;61.76;98695.50;5050547;28;20056;-68
2023/01/17 12:40:34;;;;;;;7.57;5.53;;;;;;;5.76;61.23;98686.44;5031149;28;20590;-68
2023/01/17 12:43:17;;;;;;;6.95;5.03;;;;;;;5.77;60.87;98679.81;5043991;28;20116;-68
2023/01/17 12:45:44;;;;;;;8.15;4.10;;;;;;;5.75;60.16;98678.47;5050788;28;20024;-68
2023/01/17 12:48:18;;;;;;;7.85;3.75;;;;;;;5.74;59.70;98682.28;5047862;28;20039;-68
2023/01/17 12:51:19;;;;;;;8.45;4.00;;;;;;;5.78;60.93;98677.91;5051548;28;20021;-68
2023/01/17 12:53:57;;;;;;;5.47;2.90;;;;;;;5.77;58.60;98684.50;5050680;28;20048;-68
2023/01/17 12:56:30;;;;;;;5.68;3.00;;;;;;;5.74;57.21;98676.78;5051118;28;20029;-68
2023/01/17 12:59:11;;;;;;;5.47;2.78;;;;;;;5.73;56.61;98677.88;5051509;28;20066;-68
2023/01/17 13:01:38;;;;;;;6.40;3.78;;;;;;;5.73;57.41;98691.66;5050580;28;20029;-67
2023/01/17 13:04:23;;;;;;;7.80;4.70;;;;;;;5.74;59.14;98679.53;5041932;28;20025;-68
2023/01/17 13:06:57;;;;;;;6.82;4.60;;;;;;;5.72;59.08;98679.00;5051245;28;20036;-68
2023/01/17 13:09:23;;;;;;;6.50;5.25;;;;;;;5.73;57.51;98677.88;5050062;28;20029;-68
2023/01/17 13:11:59;;;;;;;8.48;5.82;;;;;;;5.69;58.61;98683.13;5051617;28;20043;-68
2023/01/17 13:14:26;;;;;;;8.85;4.60;;;;;;;5.68;58.70;98680.66;5051094;28;20075;-68